Terminal Aerodrome Forecast
Issued by NWS

Home | Current Version | Previous Version | Graphics & Text | Print | Product List | Glossary On
Versions: 1 2 3 4 5 6 7 8 9 10 11 12 13 14 15 16
000
FTUS43 KIWX 271800 AAA
TAFSBN
TAF AMD
KSBN 271853Z 2719/2818 26015G24KT P6SM VCSH SCT030 BKN050
     FM272200 30012KT P6SM BKN035
     FM280100 VRB02KT P6SM SKC
     FM281600 17007KT P6SM FEW050=

USA.gov is the U.S. government's official web portal to all federal, state and local government web resources and services.